Time;durP1;ratioP1;P1;durP2;ratioP2;P2;SDS_P1;SDS_P2;PMS_P1;PMS_P2;Temp;Humidity;BMP_temperature;BMP_pressure;BME280_temperature;BME280_humidity;BME280_pressure;Samples;Min_cycle;Max_cycle;Signal;HPM_P1;HPM_P2
2023/10/01 00:00:20;;;;;;;9.20;3.95;;;14.50;99.90;;;;;;5045610;28;20483;-57
2023/10/01 00:02:51;;;;;;;10.60;4.13;;;14.60;99.90;;;;;;5045819;28;20037;-56
2023/10/01 00:05:17;;;;;;;10.38;4.70;;;14.60;99.90;;;;;;5046744;28;20506;-56
2023/10/01 00:07:43;;;;;;;11.50;4.70;;;14.60;99.90;;;;;;5048523;28;20033;-57
2023/10/01 00:10:11;;;;;;;8.63;4.82;;;14.60;99.90;;;;;;5048514;28;20040;-57
2023/10/01 00:12:41;;;;;;;10.65;5.18;;;14.60;99.90;;;;;;5047399;28;20090;-57
2023/10/01 00:15:13;;;;;;;11.15;4.68;;;14.60;99.90;;;;;;5045337;28;20507;-57
2023/10/01 00:17:40;;;;;;;13.23;5.45;;;14.60;99.90;;;;;;5041906;28;20029;-56
2023/10/01 00:20:17;;;;;;;11.93;5.18;;;14.60;99.90;;;;;;5047667;28;20025;-57
2023/10/01 00:22:43;;;;;;;8.80;4.45;;;14.60;99.90;;;;;;5041216;28;20508;-57
2023/10/01 00:25:09;;;;;;;11.77;5.57;;;14.60;99.90;;;;;;5047525;28;20023;-56
2023/10/01 00:27:34;;;;;;;8.43;4.63;;;14.60;99.90;;;;;;5048047;28;20028;-56
2023/10/01 00:30:00;;;;;;;10.75;4.30;;;14.60;99.90;;;;;;5050224;28;20510;-56
2023/10/01 00:32:29;;;;;;;9.82;4.00;;;14.60;99.90;;;;;;5045847;28;20025;-56
2023/10/01 00:34:57;;;;;;;9.23;4.35;;;14.60;99.90;;;;;;5048746;28;20052;-56
2023/10/01 00:37:23;;;;;;;13.18;4.30;;;14.60;99.90;;;;;;5048155;28;20013;-56
2023/10/01 00:39:48;;;;;;;7.03;4.35;;;14.60;99.90;;;;;;5047987;28;20047;-56
2023/10/01 00:42:14;;;;;;;12.02;4.57;;;14.60;99.90;;;;;;5043220;28;20437;-56
2023/10/01 00:44:39;;;;;;;9.35;4.45;;;14.50;99.90;;;;;;5036262;28;20017;-56
2023/10/01 00:47:05;;;;;;;8.07;4.78;;;14.50;99.90;;;;;;5048142;28;20063;-55
2023/10/01 00:49:40;;;;;;;8.48;4.68;;;14.50;99.90;;;;;;5048362;28;20017;-55
2023/10/01 00:52:10;;;;;;;12.55;4.85;;;14.50;99.90;;;;;;5046085;28;20029;-55
2023/10/01 00:54:35;;;;;;;11.13;4.60;;;14.50;99.90;;;;;;5047518;28;20491;-56
2023/10/01 00:57:01;;;;;;;7.13;4.18;;;14.40;99.90;;;;;;5048196;28;20024;-56
2023/10/01 00:59:27;;;;;;;8.02;4.10;;;14.40;99.90;;;;;;5048001;28;20033;-56
2023/10/01 01:01:53;;;;;;;8.20;4.70;;;14.40;99.90;;;;;;5048215;28;20025;-55
2023/10/01 01:04:21;;;;;;;12.15;4.65;;;14.40;99.90;;;;;;5034246;28;20364;-56
2023/10/01 01:06:49;;;;;;;14.95;5.25;;;14.40;99.90;;;;;;5049357;28;20025;-56
2023/10/01 01:09:15;;;;;;;7.93;5.03;;;14.30;99.90;;;;;;5046782;28;20051;-57
2023/10/01 01:11:40;;;;;;;10.98;4.55;;;14.40;99.90;;;;;;5049325;28;20063;-54
2023/10/01 01:14:07;;;;;;;14.38;5.13;;;14.30;99.90;;;;;;5042458;28;20034;-56
2023/10/01 01:16:33;;;;;;;9.63;4.18;;;14.40;99.90;;;;;;5048803;28;20013;-56
2023/10/01 01:19:00;;;;;;;9.20;4.57;;;14.30;99.90;;;;;;5048170;28;20166;-56
2023/10/01 01:21:26;;;;;;;11.38;4.90;;;14.30;99.90;;;;;;5045058;28;20323;-55
2023/10/01 01:23:53;;;;;;;10.13;4.90;;;14.30;99.90;;;;;;5042981;28;20033;-56
2023/10/01 01:26:21;;;;;;;6.28;4.22;;;14.30;99.90;;;;;;5046169;28;20474;-55
2023/10/01 01:28:47;;;;;;;10.48;4.20;;;14.40;99.90;;;;;;5048250;28;20021;-56
2023/10/01 01:31:14;;;;;;;8.48;4.35;;;14.40;99.90;;;;;;5047183;28;20015;-56
2023/10/01 01:33:40;;;;;;;11.52;4.65;;;14.30;99.90;;;;;;5041430;28;20020;-55
2023/10/01 01:36:09;;;;;;;12.23;4.05;;;14.30;99.90;;;;;;5040566;28;20346;-55
2023/10/01 01:38:37;;;;;;;9.82;4.78;;;14.30;99.90;;;;;;5047537;28;20029;-56
2023/10/01 01:41:03;;;;;;;9.52;4.47;;;14.30;99.90;;;;;;5048101;28;20059;-55
2023/10/01 01:43:32;;;;;;;8.90;4.10;;;14.20;99.90;;;;;;5046825;28;20036;-55
2023/10/01 01:46:08;;;;;;;10.70;4.75;;;14.20;99.90;;;;;;5046624;28;20497;-55
2023/10/01 01:48:37;;;;;;;13.27;5.38;;;14.20;99.90;;;;;;5048182;28;20049;-55
2023/10/01 01:51:04;;;;;;;10.18;4.30;;;14.20;99.90;;;;;;5048933;28;20014;-56
2023/10/01 01:53:41;;;;;;;10.23;4.28;;;14.30;99.90;;;;;;5047964;28;20394;-55
2023/10/01 01:56:08;;;;;;;7.78;4.38;;;14.30;99.90;;;;;;5037663;28;20487;-56
2023/10/01 01:58:35;;;;;;;8.77;4.38;;;14.30;99.90;;;;;;5047869;28;20379;-55
2023/10/01 02:01:08;;;;;;;10.20;4.50;;;14.30;99.90;;;;;;5049162;28;20013;-56
2023/10/01 02:03:46;;;;;;;21.30;5.13;;;14.30;99.90;;;;;;5046609;28;20422;-55
2023/10/01 02:06:13;;;;;;;16.20;3.95;;;14.30;99.90;;;;;;5044467;28;20063;-56
2023/10/01 02:08:48;;;;;;;7.75;4.07;;;14.30;99.90;;;;;;5048991;28;20013;-55
2023/10/01 02:11:14;;;;;;;9.93;4.20;;;14.30;99.90;;;;;;5046855;28;20024;-55
2023/10/01 02:13:41;;;;;;;9.57;4.43;;;14.30;99.90;;;;;;5040416;28;20044;-55
2023/10/01 02:19:11;;;;;;;7.28;3.88;;;14.30;99.90;;;;;;5043249;28;20063;-55
2023/10/01 02:21:52;;;;;;;9.13;4.18;;;14.30;99.90;;;;;;5047974;28;20121;-55
2023/10/01 02:24:22;;;;;;;7.80;4.15;;;14.40;99.90;;;;;;5047421;28;20480;-55
2023/10/01 02:26:53;;;;;;;8.52;4.30;;;14.30;99.90;;;;;;5043829;28;20398;-56
2023/10/01 02:29:25;;;;;;;8.35;4.43;;;14.40;99.90;;;;;;5047872;28;20028;-56
2023/10/01 02:31:56;;;;;;;11.20;4.30;;;14.40;99.90;;;;;;5048347;28;20119;-55
2023/10/01 02:34:27;;;;;;;;;;;14.30;99.90;;;;;;5046673;28;20020;-55
2023/10/01 02:36:55;;;;;;;10.95;4.10;;;14.30;99.90;;;;;;5043331;28;19909;-56
2023/10/01 02:39:27;;;;;;;7.18;4.40;;;14.40;99.90;;;;;;5045273;28;20033;-56
2023/10/01 02:44:34;;;;;;;12.90;5.00;;;14.30;99.90;;;;;;5048495;28;20025;-56
2023/10/01 02:47:09;;;;;;;10.77;4.38;;;14.30;99.90;;;;;;5046418;28;20032;-56
2023/10/01 02:49:47;;;;;;;11.80;4.60;;;14.30;99.90;;;;;;5043578;28;20090;-57
2023/10/01 02:52:13;;;;;;;12.00;4.25;;;14.30;99.90;;;;;;5048510;28;20323;-56
2023/10/01 02:54:39;;;;;;;8.93;3.78;;;14.30;99.90;;;;;;5048099;28;20021;-56
2023/10/01 02:57:20;;;;;;;8.73;4.18;;;14.30;99.90;;;;;;5048425;28;20111;-56
2023/10/01 03:02:32;;;;;;;10.13;4.35;;;14.20;99.90;;;;;;5047941;28;20036;-56
2023/10/01 03:05:16;;;;;;;8.90;4.13;;;14.20;99.90;;;;;;5048962;28;20209;-56
2023/10/01 03:07:45;;;;;;;9.93;4.18;;;14.20;99.90;;;;;;5047482;28;20055;-57
2023/10/01 03:10:15;;;;;;;9.32;3.97;;;14.20;99.90;;;;;;5039493;28;20100;-56
2023/10/01 03:12:41;;;;;;;8.80;4.00;;;14.20;99.90;;;;;;5048161;28;20060;-57
2023/10/01 03:17:55;;;;;;;13.25;4.68;;;14.10;99.90;;;;;;5048766;28;20104;-55
2023/10/01 03:26:05;;;;;;;7.65;4.15;;;14.00;99.90;;;;;;5049055;28;20071;-55
2023/10/01 03:31:25;;;;;;;8.70;4.38;;;14.00;99.90;;;;;;5029890;28;20040;-55
2023/10/01 03:33:53;;;;;;;10.45;4.25;;;13.90;99.90;;;;;;5043369;28;20083;-56
2023/10/01 03:36:28;;;;;;;8.20;3.83;;;13.90;99.90;;;;;;5029187;28;20104;-55
2023/10/01 03:38:59;;;;;;;15.07;5.63;;;13.80;99.90;;;;;;5035345;28;20017;-56
2023/10/01 03:41:27;;;;;;;8.40;4.32;;;13.80;99.90;;;;;;5036695;28;20536;-56
2023/10/01 03:44:08;;;;;;;11.50;5.10;;;13.80;99.90;;;;;;5028675;28;20036;-55
2023/10/01 03:46:45;;;;;;;10.18;4.65;;;13.80;99.90;;;;;;5027499;28;20025;-55
2023/10/01 03:52:00;;;;;;;10.60;4.45;;;13.80;99.90;;;;;;5044931;28;20040;-56
2023/10/01 03:54:54;;;;;;;11.57;3.95;;;13.80;99.90;;;;;;5032809;28;20021;-56
2023/10/01 03:57:19;;;;;;;8.32;4.25;;;13.80;99.90;;;;;;5041187;28;20031;-56
2023/10/01 03:59:52;;;;;;;8.52;4.18;;;13.80;99.90;;;;;;5032885;28;20056;-56
2023/10/01 04:02:28;;;;;;;5.35;3.45;;;13.90;99.90;;;;;;5037213;28;20029;-56
2023/10/01 04:04:57;;;;;;;8.60;4.28;;;13.90;99.90;;;;;;5039244;28;20155;-56
2023/10/01 04:07:42;;;;;;;10.63;4.47;;;13.90;99.90;;;;;;5033224;28;20099;-57
2023/10/01 04:13:12;;;;;;;8.45;4.13;;;13.90;99.90;;;;;;5043867;28;20017;-56
2023/10/01 04:15:41;;;;;;;10.80;4.43;;;13.90;99.90;;;;;;5041486;28;20045;-56
2023/10/01 04:20:47;;;;;;;10.15;4.28;;;14.00;99.90;;;;;;5040704;28;20025;-56
2023/10/01 04:23:30;;;;;;;9.80;3.97;;;14.00;99.90;;;;;;5031130;28;20029;-56
2023/10/01 04:26:06;;;;;;;10.20;4.47;;;14.00;99.90;;;;;;5035036;28;20025;-56
2023/10/01 04:28:35;;;;;;;8.18;4.00;;;14.00;99.90;;;;;;5036558;28;20025;-56
2023/10/01 04:31:03;;;;;;;11.10;4.25;;;14.00;99.90;;;;;;5044469;28;20025;-57
2023/10/01 04:33:29;;;;;;;7.80;4.40;;;14.00;99.90;;;;;;5039475;28;20108;-57
2023/10/01 04:35:55;;;;;;;6.70;4.13;;;14.00;99.90;;;;;;5036301;28;20021;-56
2023/10/01 04:38:32;;;;;;;7.30;4.30;;;14.00;99.90;;;;;;5040680;28;20047;-56
2023/10/01 04:40:58;;;;;;;7.97;4.18;;;14.10;99.90;;;;;;5034765;28;20029;-57
2023/10/01 04:43:26;;;;;;;14.05;4.60;;;14.00;99.90;;;;;;5042763;28;20029;-57
2023/10/01 04:45:52;;;;;;;11.20;4.28;;;14.00;99.90;;;;;;5041252;28;20042;-57
2023/10/01 04:48:22;;;;;;;8.90;4.68;;;14.00;99.90;;;;;;5034807;28;20021;-56
2023/10/01 04:50:50;;;;;;;10.70;4.53;;;14.00;99.90;;;;;;5034266;28;20091;-57
2023/10/01 04:53:22;;;;;;;9.23;4.90;;;14.00;99.90;;;;;;5032418;28;20403;-57
2023/10/01 04:56:01;;;;;;;13.73;5.40;;;14.00;99.90;;;;;;5036990;28;20071;-57
2023/10/01 04:58:29;;;;;;;8.05;4.18;;;14.00;99.90;;;;;;5026720;28;20036;-56
2023/10/01 05:00:55;;;;;;;7.65;4.38;;;14.00;99.90;;;;;;5036898;28;20028;-55
2023/10/01 05:03:40;;;;;;;6.72;4.10;;;14.00;99.90;;;;;;5034595;28;20018;-56
2023/10/01 05:06:11;;;;;;;11.13;5.10;;;14.00;99.90;;;;;;5037095;28;20518;-56
2023/10/01 05:08:40;;;;;;;11.32;4.88;;;14.00;99.90;;;;;;5038559;28;20059;-55
2023/10/01 05:11:10;;;;;;;9.57;4.15;;;14.00;99.90;;;;;;5042962;28;20017;-55
2023/10/01 05:13:39;;;;;;;13.07;4.45;;;14.00;99.90;;;;;;5032658;28;20086;-56
2023/10/01 05:16:06;;;;;;;7.45;4.22;;;14.00;99.90;;;;;;5038481;28;20055;-56
2023/10/01 05:18:33;;;;;;;9.70;4.35;;;14.00;99.90;;;;;;5047556;28;20028;-55
2023/10/01 05:20:59;;;;;;;8.18;4.47;;;14.00;99.90;;;;;;5032427;28;20018;-55
2023/10/01 05:23:25;;;;;;;5.72;4.05;;;14.00;99.90;;;;;;5040283;28;20478;-55
2023/10/01 05:25:51;;;;;;;14.70;4.85;;;13.90;99.90;;;;;;5041174;28;20026;-55
2023/10/01 05:28:34;;;;;;;9.73;4.38;;;13.90;99.90;;;;;;5032829;28;20502;-56
2023/10/01 05:31:06;;;;;;;5.90;3.72;;;13.90;99.90;;;;;;5033664;28;20155;-57
2023/10/01 05:33:35;;;;;;;8.77;4.55;;;13.90;99.90;;;;;;5033265;28;20021;-56
2023/10/01 05:36:04;;;;;;;9.68;4.45;;;13.90;99.90;;;;;;5033999;28;20344;-56
2023/10/01 05:38:36;;;;;;;6.43;4.20;;;13.90;99.90;;;;;;5039690;28;20025;-57
2023/10/01 05:41:13;;;;;;;11.32;4.78;;;13.90;99.90;;;;;;5047581;28;20033;-57
2023/10/01 05:43:51;;;;;;;9.02;4.53;;;13.90;99.90;;;;;;5033768;28;20025;-57
2023/10/01 05:46:17;;;;;;;11.60;4.70;;;13.90;99.90;;;;;;5037227;28;20438;-57
2023/10/01 05:48:44;;;;;;;9.07;4.50;;;13.90;99.90;;;;;;5040070;28;20229;-56
2023/10/01 05:51:20;;;;;;;13.85;4.50;;;13.90;99.90;;;;;;5039485;28;20018;-57
2023/10/01 05:53:46;;;;;;;10.32;5.00;;;14.00;99.90;;;;;;5032656;28;20052;-57
2023/10/01 05:56:15;;;;;;;9.00;4.72;;;14.00;99.90;;;;;;5033437;28;20032;-56
2023/10/01 05:58:42;;;;;;;10.48;4.20;;;14.00;99.90;;;;;;5035849;28;20029;-57
2023/10/01 06:01:16;;;;;;;9.45;4.35;;;13.90;99.90;;;;;;5031841;28;20029;-56
2023/10/01 06:03:44;;;;;;;7.80;4.55;;;14.00;99.90;;;;;;5031750;28;20161;-57
2023/10/01 06:06:24;;;;;;;9.98;5.03;;;14.00;99.90;;;;;;5038082;28;20024;-57
2023/10/01 06:08:58;;;;;;;10.10;4.97;;;13.90;99.90;;;;;;5044526;28;20074;-58
2023/10/01 06:11:42;;;;;;;7.55;3.95;;;14.00;99.90;;;;;;5040367;28;20108;-57
2023/10/01 06:14:36;;;;;;;11.27;4.90;;;14.00;99.90;;;;;;5035988;28;20498;-58
2023/10/01 06:17:01;;;;;;;7.57;4.97;;;14.00;99.90;;;;;;5018287;28;20041;-56
2023/10/01 06:19:34;;;;;;;9.55;4.40;;;14.00;99.90;;;;;;5040023;28;20037;-56
2023/10/01 06:22:22;;;;;;;11.18;4.95;;;14.00;99.90;;;;;;5032162;28;20104;-55
2023/10/01 06:24:48;;;;;;;8.57;4.50;;;14.00;99.90;;;;;;5032527;28;20033;-56
2023/10/01 06:27:17;;;;;;;10.98;4.47;;;14.10;99.90;;;;;;5037926;28;20029;-56
2023/10/01 06:29:49;;;;;;;15.80;4.88;;;14.10;99.90;;;;;;5031365;28;20028;-56
2023/10/01 06:32:20;;;;;;;11.35;5.35;;;14.20;99.90;;;;;;5031572;28;20408;-55
2023/10/01 06:34:47;;;;;;;8.60;3.92;;;14.20;99.90;;;;;;5039950;28;20059;-55
2023/10/01 06:37:12;;;;;;;12.98;5.35;;;14.20;99.90;;;;;;5038866;28;20426;-56
2023/10/01 06:39:41;;;;;;;7.93;4.43;;;14.20;99.90;;;;;;5034657;28;20037;-54
2023/10/01 06:42:19;;;;;;;11.30;4.57;;;14.20;99.90;;;;;;5037148;28;20449;-55
2023/10/01 06:44:50;;;;;;;11.15;4.55;;;14.30;99.90;;;;;;5032470;28;20405;-55
2023/10/01 06:47:16;;;;;;;12.07;4.65;;;14.30;99.90;;;;;;5039120;28;20040;-56
2023/10/01 06:49:57;;;;;;;13.65;4.65;;;14.40;99.90;;;;;;5034738;28;20033;-55
2023/10/01 06:52:25;;;;;;;11.85;4.65;;;14.40;99.90;;;;;;5039881;28;20024;-56
2023/10/01 06:54:52;;;;;;;18.98;5.18;;;14.50;99.90;;;;;;5033069;28;20107;-56
2023/10/01 06:57:19;;;;;;;14.73;5.57;;;14.60;99.90;;;;;;5037950;28;20244;-56
2023/10/01 06:59:45;;;;;;;10.63;4.32;;;14.60;99.90;;;;;;5040341;28;20457;-57
2023/10/01 07:02:12;;;;;;;13.45;4.47;;;14.70;99.90;;;;;;5038126;28;20355;-56
2023/10/01 07:04:37;;;;;;;9.05;3.97;;;14.70;99.90;;;;;;5034980;28;20463;-55
2023/10/01 07:07:20;;;;;;;9.50;4.97;;;14.80;99.90;;;;;;5032791;28;20018;-56
2023/10/01 07:09:45;;;;;;;9.45;4.30;;;14.90;99.90;;;;;;5041232;28;20560;-56
2023/10/01 07:12:11;;;;;;;12.52;3.97;;;15.00;99.90;;;;;;5035921;28;20033;-56
2023/10/01 07:14:43;;;;;;;11.00;4.43;;;15.10;99.90;;;;;;5034765;28;20173;-56
2023/10/01 07:17:09;;;;;;;8.32;4.00;;;15.20;99.90;;;;;;5031383;28;20026;-60
2023/10/01 07:19:36;;;;;;;7.40;4.28;;;15.20;99.90;;;;;;5035300;28;20037;-56
2023/10/01 07:22:06;;;;;;;6.35;3.75;;;15.20;99.90;;;;;;5030701;28;20152;-56
2023/10/01 07:24:36;;;;;;;10.98;4.63;;;15.30;99.90;;;;;;5047746;28;20021;-55
2023/10/01 07:27:11;;;;;;;8.82;3.53;;;15.30;99.90;;;;;;5042111;28;20030;-56
2023/10/01 07:29:42;;;;;;;7.50;4.05;;;15.30;99.90;;;;;;5050578;28;20167;-56
2023/10/01 07:32:12;;;;;;;8.00;4.13;;;15.40;99.90;;;;;;5046392;28;20040;-56
2023/10/01 07:34:48;;;;;;;6.53;3.55;;;15.50;99.90;;;;;;5038996;28;20629;-56
2023/10/01 07:37:25;;;;;;;11.30;4.90;;;15.70;99.90;;;;;;5045298;28;20522;-56
2023/10/01 07:40:17;;;;;;;11.18;4.70;;;15.80;99.90;;;;;;5041333;28;20043;-57
2023/10/01 07:42:46;;;;;;;9.27;3.88;;;16.00;99.90;;;;;;5034463;28;20491;-57
2023/10/01 07:45:16;;;;;;;11.43;4.07;;;16.00;99.90;;;;;;5044848;28;20025;-56
2023/10/01 07:47:45;;;;;;;11.80;4.80;;;16.20;99.90;;;;;;5036644;28;20025;-56
2023/10/01 07:50:16;;;;;;;7.70;4.20;;;16.40;99.90;;;;;;5037034;28;20025;-56
2023/10/01 07:52:42;;;;;;;7.43;3.90;;;16.50;99.90;;;;;;5036703;28;20021;-57
2023/10/01 07:57:53;;;;;;;6.28;3.75;;;16.90;99.90;;;;;;5036968;28;20056;-57
2023/10/01 08:00:29;;;;;;;9.23;3.78;;;17.00;99.90;;;;;;5037906;28;20481;-56
2023/10/01 08:05:40;;;;;;;7.85;4.47;;;17.00;99.90;;;;;;5045353;28;20040;-57
2023/10/01 08:08:08;;;;;;;10.20;4.20;;;17.10;99.90;;;;;;5037099;28;20021;-57
2023/10/01 08:10:37;;;;;;;6.82;4.07;;;17.20;99.90;;;;;;5045294;28;20033;-57
2023/10/01 08:13:06;;;;;;;8.45;3.70;;;17.20;99.90;;;;;;5040205;28;20094;-56
2023/10/01 08:15:38;;;;;;;9.70;4.68;;;17.40;99.90;;;;;;5040415;28;20072;-57
2023/10/01 08:20:57;;;;;;;8.00;3.75;;;17.40;99.90;;;;;;5037061;28;20036;-56
2023/10/01 08:23:28;;;;;;;8.25;3.92;;;17.50;99.90;;;;;;5038423;28;20029;-57
2023/10/01 08:25:55;;;;;;;;;;;17.40;99.90;;;;;;5047105;28;20060;-57
2023/10/01 08:30:49;;;;;;;9.65;4.22;;;17.40;99.90;;;;;;5043643;28;20027;-57
2023/10/01 08:33:18;;;;;;;9.43;4.30;;;17.20;99.90;;;;;;5036611;28;20457;-57
2023/10/01 08:35:56;;;;;;;5.82;3.75;;;17.20;99.90;;;;;;5038138;28;20079;-57
2023/10/01 08:38:23;;;;;;;8.90;4.10;;;17.20;99.90;;;;;;5041103;28;20491;-57
2023/10/01 08:40:52;;;;;;;5.85;3.63;;;17.20;99.90;;;;;;5039400;28;20063;-57
2023/10/01 08:43:21;;;;;;;7.80;4.13;;;17.30;99.90;;;;;;5045406;28;20487;-57
2023/10/01 08:45:49;;;;;;;8.40;3.65;;;17.50;99.90;;;;;;5042069;28;20525;-57
2023/10/01 08:48:17;;;;;;;8.50;4.13;;;17.60;99.90;;;;;;5037688;28;20426;-58
2023/10/01 08:50:45;;;;;;;6.47;4.00;;;17.80;99.90;;;;;;5043309;28;20013;-57
2023/10/01 08:53:12;;;;;;;5.90;3.55;;;17.90;99.90;;;;;;5040627;28;20037;-57
2023/10/01 09:00:52;;;;;;;9.75;4.50;;;18.40;99.90;;;;;;5042189;28;20025;-58
2023/10/01 09:03:34;;;;;;;9.35;4.70;;;18.60;99.90;;;;;;5043814;28;20025;-58
2023/10/01 09:06:03;;;;;;;7.82;4.60;;;18.80;99.90;;;;;;5037565;28;20049;-58
2023/10/01 09:08:31;;;;;;;6.72;4.05;;;19.00;99.90;;;;;;5038810;28;20026;-57
2023/10/01 09:10:59;;;;;;;10.45;4.50;;;19.00;99.90;;;;;;5042875;28;20025;-57
2023/10/01 09:13:26;;;;;;;6.10;3.60;;;18.90;99.90;;;;;;5042103;28;20029;-57
2023/10/01 09:15:55;;;;;;;8.68;4.03;;;18.90;99.90;;;;;;5034387;28;20236;-57
2023/10/01 09:18:25;;;;;;;7.72;4.32;;;18.70;99.90;;;;;;5037922;28;20025;-58
2023/10/01 09:21:06;;;;;;;6.40;4.00;;;18.50;99.90;;;;;;5038781;28;20025;-57
2023/10/01 09:23:57;;;;;;;9.63;4.45;;;18.50;99.90;;;;;;5038831;28;20279;-58
2023/10/01 09:26:39;;;;;;;11.68;4.55;;;18.70;99.90;;;;;;5047110;28;20466;-57
2023/10/01 09:29:25;;;;;;;9.20;4.28;;;18.60;99.90;;;;;;5042412;28;20071;-57
2023/10/01 09:31:59;;;;;;;7.82;4.35;;;18.50;99.90;;;;;;5039987;28;20061;-57
2023/10/01 09:34:35;;;;;;;8.10;3.90;;;18.60;99.90;;;;;;5042153;28;20120;-57
2023/10/01 09:37:11;;;;;;;12.45;4.07;;;18.50;99.90;;;;;;5041102;28;20163;-57
2023/10/01 09:39:41;;;;;;;5.53;3.70;;;18.50;99.90;;;;;;5039154;28;20072;-57
2023/10/01 09:42:25;;;;;;;5.60;3.95;;;18.60;99.90;;;;;;5042058;28;20032;-57
2023/10/01 09:44:53;;;;;;;7.65;4.20;;;18.60;99.90;;;;;;5036914;28;20025;-57
2023/10/01 09:47:24;;;;;;;8.77;3.70;;;18.70;99.90;;;;;;5042014;28;20025;-57
2023/10/01 09:49:54;;;;;;;6.20;3.60;;;18.60;99.90;;;;;;5038814;28;20089;-57
2023/10/01 09:52:30;;;;;;;9.05;3.70;;;18.80;99.90;;;;;;5038146;28;20630;-57
2023/10/01 09:55:24;;;;;;;6.57;3.90;;;18.90;99.90;;;;;;5038800;28;20051;-57
2023/10/01 09:57:56;;;;;;;7.00;3.60;;;18.90;99.70;;;;;;5037221;28;20534;-57
2023/10/01 10:00:39;;;;;;;6.13;3.75;;;18.90;99.90;;;;;;5047124;28;20017;-57
2023/10/01 10:03:09;;;;;;;9.55;4.10;;;19.00;99.90;;;;;;5036230;28;20029;-58
2023/10/01 10:05:39;;;;;;;8.23;3.53;;;18.90;99.70;;;;;;5042799;28;20048;-57
2023/10/01 10:08:15;;;;;;;6.35;3.58;;;19.10;99.80;;;;;;5036102;28;20018;-57
2023/10/01 10:10:49;;;;;;;7.28;3.58;;;19.00;99.90;;;;;;5041359;28;20422;-57
2023/10/01 10:13:45;;;;;;;5.13;3.33;;;19.10;99.10;;;;;;5038182;28;20013;-57
2023/10/01 10:16:30;;;;;;;7.55;3.75;;;19.10;99.40;;;;;;5037766;28;20033;-58
2023/10/01 10:19:10;;;;;;;9.57;4.03;;;19.00;99.10;;;;;;5037238;28;20091;-57
2023/10/01 10:24:29;;;;;;;9.13;3.75;;;18.70;99.90;;;;;;5036898;28;20387;-58
2023/10/01 10:26:58;;;;;;;7.28;3.72;;;18.70;99.70;;;;;;5041242;28;20112;-57
2023/10/01 10:29:24;;;;;;;6.22;3.63;;;18.80;99.90;;;;;;5037436;28;20060;-57
2023/10/01 10:32:09;;;;;;;6.63;3.63;;;19.00;99.90;;;;;;5040478;28;20021;-58
2023/10/01 10:34:36;;;;;;;9.65;3.85;;;19.10;99.90;;;;;;5039442;28;20014;-58
2023/10/01 10:37:06;;;;;;;8.00;4.13;;;19.40;99.50;;;;;;5042833;28;20021;-58
2023/10/01 10:40:02;;;;;;;7.22;3.88;;;19.60;98.80;;;;;;5043700;28;20036;-57
2023/10/01 10:42:33;;;;;;;9.27;4.03;;;19.70;98.70;;;;;;5044868;28;20024;-58
2023/10/01 10:45:19;;;;;;;9.02;4.22;;;19.70;98.90;;;;;;5037688;28;20033;-58
2023/10/01 10:48:03;;;;;;;9.73;4.78;;;19.60;98.50;;;;;;5043972;28;20028;-58
2023/10/01 10:50:50;;;;;;;11.23;5.00;;;19.30;98.20;;;;;;5040986;28;20136;-57
2023/10/01 10:53:20;;;;;;;8.68;4.32;;;19.00;98.70;;;;;;5044614;28;20040;-57
2023/10/01 10:55:53;;;;;;;11.80;4.43;;;19.00;99.30;;;;;;5045055;28;20025;-57
2023/10/01 10:58:24;;;;;;;11.32;5.20;;;18.90;99.50;;;;;;5046820;28;20024;-57
2023/10/01 11:00:50;;;;;;;9.32;4.45;;;18.90;99.70;;;;;;5043026;28;20432;-58
2023/10/01 11:03:42;;;;;;;10.23;4.25;;;18.90;99.70;;;;;;5037295;28;20021;-57
2023/10/01 11:06:20;;;;;;;7.65;4.25;;;18.90;99.50;;;;;;5040728;28;20109;-58
2023/10/01 11:08:51;;;;;;;10.07;4.55;;;18.80;99.80;;;;;;5032157;28;20471;-57
2023/10/01 11:11:30;;;;;;;9.77;4.90;;;18.80;99.90;;;;;;5032196;28;20061;-58
2023/10/01 11:14:00;;;;;;;9.27;4.38;;;18.80;99.90;;;;;;5039619;28;20455;-59
2023/10/01 11:16:36;;;;;;;14.32;4.68;;;18.90;99.90;;;;;;5046964;28;20037;-57
2023/10/01 11:19:13;;;;;;;10.13;4.43;;;19.00;99.90;;;;;;5038400;28;20037;-58
2023/10/01 11:21:59;;;;;;;10.48;4.93;;;19.10;99.90;;;;;;5040055;28;20078;-57
2023/10/01 11:24:31;;;;;;;13.10;5.13;;;19.10;99.70;;;;;;5039089;28;20029;-58
2023/10/01 11:27:19;;;;;;;9.93;4.55;;;19.10;99.80;;;;;;5040017;28;20058;-57
2023/10/01 11:29:58;;;;;;;11.65;5.15;;;19.20;99.90;;;;;;5034430;28;20033;-56
2023/10/01 11:36:07;;;;;;;9.95;4.80;;;19.30;99.50;;;;;;5038532;28;20340;-56
2023/10/01 11:38:35;;;;;;;10.95;4.50;;;19.20;99.50;;;;;;5041354;28;20506;-56
2023/10/01 11:41:09;;;;;;;11.57;4.38;;;19.10;99.90;;;;;;5035560;28;20074;-56
2023/10/01 11:43:59;;;;;;;8.75;4.78;;;19.00;99.80;;;;;;5036399;28;20024;-57
2023/10/01 11:46:29;;;;;;;11.98;4.95;;;19.00;99.90;;;;;;5039259;28;20059;-56
2023/10/01 11:49:15;;;;;;;10.80;4.85;;;19.00;99.90;;;;;;5035642;28;20434;-56
2023/10/01 11:51:50;;;;;;;8.13;4.43;;;19.00;99.90;;;;;;5036103;28;20037;-56
2023/10/01 11:54:17;;;;;;;13.13;5.25;;;19.00;99.90;;;;;;5037829;28;20018;-57
2023/10/01 11:56:47;;;;;;;10.55;5.30;;;18.90;99.90;;;;;;5039588;28;20536;-57
2023/10/01 11:59:19;;;;;;;8.43;4.75;;;18.90;99.90;;;;;;5036240;28;20044;-56
2023/10/01 12:01:53;;;;;;;11.10;5.45;;;19.00;99.90;;;;;;5039508;28;20052;-57
2023/10/01 12:04:43;;;;;;;8.65;5.00;;;19.10;99.90;;;;;;5042433;28;20061;-57
2023/10/01 12:07:16;;;;;;;11.38;5.32;;;19.10;99.90;;;;;;5039160;28;20053;-57
2023/10/01 12:09:48;;;;;;;10.73;5.05;;;19.20;99.90;;;;;;5036101;28;20048;-57
2023/10/01 12:12:14;;;;;;;10.68;4.88;;;19.10;99.90;;;;;;5043614;28;20025;-57
2023/10/01 12:14:53;;;;;;;10.18;5.20;;;19.00;99.90;;;;;;5044527;28;20104;-56
2023/10/01 12:17:23;;;;;;;14.32;5.75;;;19.00;99.90;;;;;;5036316;28;20025;-58
2023/10/01 12:19:50;;;;;;;12.23;5.85;;;19.00;99.90;;;;;;5044819;28;20025;-57
2023/10/01 12:22:16;;;;;;;9.57;5.00;;;18.80;99.90;;;;;;5043863;28;20103;-57
2023/10/01 12:24:44;;;;;;;10.40;5.28;;;18.80;99.90;;;;;;5045366;28;20029;-57
2023/10/01 12:27:11;;;;;;;13.27;5.82;;;18.80;99.90;;;;;;5047267;28;20025;-57
2023/10/01 12:29:42;;;;;;;7.25;4.50;;;18.90;99.90;;;;;;5045836;28;20029;-56
2023/10/01 12:32:10;;;;;;;10.98;4.75;;;18.90;99.90;;;;;;5044094;28;20025;-57
2023/10/01 12:34:36;;;;;;;10.45;4.90;;;19.00;99.90;;;;;;5037865;28;20482;-57
2023/10/01 12:37:07;;;;;;;12.00;5.53;;;19.10;99.90;;;;;;5039841;28;20029;-57
2023/10/01 12:39:34;;;;;;;12.13;5.38;;;19.30;99.90;;;;;;5040301;28;20029;-56
2023/10/01 12:42:04;;;;;;;9.80;5.00;;;19.40;99.90;;;;;;5038471;28;20022;-58
2023/10/01 12:44:31;;;;;;;13.30;5.50;;;19.50;99.90;;;;;;5041747;28;20029;-58
2023/10/01 12:47:07;;;;;;;11.40;5.13;;;19.50;99.90;;;;;;5039040;28;20072;-58
2023/10/01 12:49:33;;;;;;;15.25;5.90;;;19.60;99.90;;;;;;5042909;28;20497;-58
2023/10/01 12:52:04;;;;;;;10.65;5.13;;;19.60;99.90;;;;;;5036188;28;20028;-58
2023/10/01 12:54:29;;;;;;;11.55;5.28;;;19.70;99.90;;;;;;5041533;28;20025;-58
2023/10/01 12:59:46;;;;;;;9.95;4.78;;;19.90;99.90;;;;;;5041586;28;20071;-57
2023/10/01 13:07:45;;;;;;;10.60;5.72;;;20.10;99.90;;;;;;5047863;28;20409;-56
2023/10/01 13:10:12;;;;;;;13.20;5.30;;;20.10;99.90;;;;;;5045771;28;20017;-56
2023/10/01 13:12:39;;;;;;;12.38;5.53;;;20.10;99.90;;;;;;5049443;28;20036;-58
2023/10/01 13:15:15;;;;;;;15.43;5.80;;;20.20;99.90;;;;;;5047412;28;20033;-58
2023/10/01 13:17:44;;;;;;;9.48;5.03;;;20.30;99.90;;;;;;5048412;28;20040;-58
2023/10/01 13:20:25;;;;;;;9.73;4.72;;;20.40;99.90;;;;;;5040131;28;20032;-58
2023/10/01 13:22:51;;;;;;;14.70;5.70;;;20.50;99.90;;;;;;5040894;28;20027;-58
2023/10/01 13:25:23;;;;;;;12.30;5.85;;;20.40;99.80;;;;;;5044857;28;20091;-57
2023/10/01 13:28:01;;;;;;;15.68;6.63;;;20.30;99.90;;;;;;5039802;28;20025;-56
2023/10/01 13:33:25;;;;;;;14.32;6.07;;;20.20;99.90;;;;;;5047238;28;20029;-56
2023/10/01 13:36:12;;;;;;;13.35;6.32;;;20.20;99.90;;;;;;5045409;28;20033;-58
2023/10/01 13:38:52;;;;;;;13.32;5.93;;;20.20;99.90;;;;;;5045421;28;20069;-57
2023/10/01 14:08:47;;;;;;;12.40;6.30;;;21.30;98.80;;;;;;5036646;28;20068;-58
2023/10/01 14:11:26;;;;;;;11.65;6.40;;;21.20;99.00;;;;;;5041710;28;20049;-57
2023/10/01 14:13:53;;;;;;;14.98;6.72;;;21.10;99.20;;;;;;5034475;28;20021;-57
2023/10/01 14:16:22;;;;;;;14.57;5.90;;;21.00;98.90;;;;;;5043808;28;20112;-58
2023/10/01 14:18:55;;;;;;;11.95;6.47;;;20.90;99.30;;;;;;5046633;28;20025;-58
2023/10/01 14:21:22;;;;;;;10.40;5.70;;;20.80;99.40;;;;;;5045173;28;20109;-57
2023/10/01 14:23:52;;;;;;;11.30;7.07;;;20.80;99.60;;;;;;5047774;28;20474;-58
2023/10/01 14:26:26;;;;;;;12.60;7.03;;;20.80;99.60;;;;;;5038403;28;20032;-58
2023/10/01 14:28:55;;;;;;;13.05;6.18;;;20.80;99.90;;;;;;5043549;28;20017;-58
2023/10/01 14:34:07;;;;;;;12.25;6.38;;;20.70;99.90;;;;;;5044297;28;20032;-57
2023/10/01 14:36:33;;;;;;;14.90;6.20;;;20.70;99.90;;;;;;5044539;28;20025;-57